KPRO/PRO METAR and TAF weather

Enter ICAO airport designator
Station Type Date Time Source
KPRO METAR 2019/02/18 04:35 UTC NOAA

KPRO 180435Z AUTO 00000KT 7SM -SN SCT028 SCT035 OVC043 M07/M07 A3009 RMK AO2 T10661070


Station Type Date Time Source
KPRO Decoded METAR 2019/02/18 04:35 UTC NOAA

Station name not available
Feb 17, 2019 - 11:35 PM EST / 2019.02.18 0435 UTC
Wind: Calm:0
Visibility: 7 mile(s):0
Sky conditions: overcast
Weather: light snow
Temperature: 20.1 F (-6.6 C)
Dew Point: 19.4 F (-7.0 C)
Relative Humidity: 96%
Pressure (altimeter): 30.09 in. Hg (1018 hPa)
ob: KPRO 180435Z AUTO 00000KT 7SM -SN SCT028 SCT035 OVC043 M07/M07 A3009 RMK AO2 T10661070
cycle: 4

Station Type Date Time Source
KPRO TAF UTC NOAA

Error!


Example: see airport list